createdAt,value
2017-09-30T00:01:11.479Z,24.30
2017-09-30T00:03:37.761Z,24.13
2017-09-30T00:06:04.069Z,25.63
2017-09-30T00:08:31.138Z,25.23
2017-09-30T00:10:58.168Z,25.00
2017-09-30T00:13:25.217Z,24.50
2017-09-30T00:15:52.251Z,25.37
2017-09-30T00:18:18.566Z,26.00
2017-09-30T00:20:46.357Z,26.20
2017-09-30T00:23:13.398Z,24.23
2017-09-30T00:25:40.416Z,24.33
2017-09-30T00:28:06.725Z,25.87
2017-09-30T00:30:33.009Z,25.20
2017-09-30T00:33:00.058Z,25.77
2017-09-30T00:35:27.114Z,26.00
2017-09-30T00:37:54.165Z,24.77
2017-09-30T00:40:21.217Z,24.07
2017-09-30T00:42:47.513Z,25.10
2017-09-30T00:45:14.567Z,25.33
2017-09-30T00:47:41.678Z,24.07
2017-09-30T00:50:07.981Z,25.10
2017-09-30T00:52:34.286Z,25.10
2017-09-30T00:55:00.619Z,25.30
2017-09-30T00:57:27.690Z,25.87
2017-09-30T00:59:54.014Z,25.77
2017-09-30T01:02:20.321Z,26.37
2017-09-30T01:04:47.403Z,26.23
2017-09-30T01:07:13.709Z,24.50
2017-09-30T01:09:40.747Z,24.40
2017-09-30T01:12:07.814Z,26.70
2017-09-30T01:14:34.890Z,24.80
2017-09-30T01:17:01.285Z,24.97
2017-09-30T01:19:27.609Z,25.10
2017-09-30T01:21:54.675Z,25.77
2017-09-30T01:24:20.985Z,24.53
2017-09-30T01:26:47.302Z,26.10
2017-09-30T01:29:14.636Z,25.70
2017-09-30T01:31:41.734Z,25.83
2017-09-30T01:34:08.060Z,26.23
2017-09-30T01:36:34.390Z,25.40
2017-09-30T01:39:00.707Z,25.03
2017-09-30T01:41:27.060Z,26.57
2017-09-30T01:43:53.381Z,26.33
2017-09-30T01:46:19.713Z,26.50
2017-09-30T01:48:46.023Z,26.50
2017-09-30T01:51:13.092Z,25.97
2017-09-30T01:53:39.408Z,27.13
2017-09-30T01:56:06.479Z,25.60
2017-09-30T01:58:32.810Z,27.00
2017-09-30T02:00:59.190Z,25.83
2017-09-30T02:03:26.250Z,25.03
2017-09-30T02:05:53.333Z,27.17
2017-09-30T02:08:20.840Z,25.63
2017-09-30T02:10:47.941Z,27.90
2017-09-30T02:13:14.243Z,26.37
2017-09-30T02:15:41.318Z,27.47
2017-09-30T02:18:07.632Z,27.63
2017-09-30T02:20:33.944Z,28.40
2017-09-30T02:23:00.995Z,27.83
2017-09-30T02:25:28.035Z,28.10
2017-09-30T02:27:55.093Z,25.63
2017-09-30T02:30:22.146Z,27.73
2017-09-30T02:32:49.207Z,28.47
2017-09-30T02:35:15.494Z,28.13
2017-09-30T02:37:42.629Z,29.57
2017-09-30T02:40:08.924Z,27.40
2017-09-30T02:42:35.243Z,28.00
2017-09-30T02:45:02.282Z,29.10
2017-09-30T02:47:29.334Z,28.40
2017-09-30T02:49:56.370Z,27.33
2017-09-30T02:52:23.399Z,28.57
2017-09-30T02:54:50.450Z,28.50
2017-09-30T02:57:16.766Z,28.30
2017-09-30T02:59:43.041Z,28.47
2017-09-30T03:02:09.353Z,29.60
2017-09-30T03:04:35.652Z,30.10
2017-09-30T03:07:01.925Z,29.10
2017-09-30T03:09:28.231Z,28.67
2017-09-30T03:11:54.510Z,30.70
2017-09-30T03:14:20.817Z,30.00
2017-09-30T03:16:47.106Z,28.40
2017-09-30T03:19:13.418Z,29.93
2017-09-30T03:21:39.701Z,27.90
2017-09-30T03:24:05.996Z,29.13
2017-09-30T03:26:32.278Z,28.10
2017-09-30T03:28:59.512Z,27.97
2017-09-30T03:31:26.567Z,28.13
2017-09-30T03:33:52.871Z,30.03
2017-09-30T03:36:19.146Z,28.67
2017-09-30T03:38:45.451Z,30.60
2017-09-30T03:41:11.742Z,28.93
2017-09-30T03:43:38.083Z,29.30
2017-09-30T03:46:05.132Z,30.07
2017-09-30T03:48:31.435Z,28.50
2017-09-30T03:50:57.709Z,28.10
2017-09-30T03:53:23.995Z,29.43
2017-09-30T03:55:50.301Z,29.40
2017-09-30T03:58:16.601Z,32.13
2017-09-30T04:00:42.938Z,30.07
2017-09-30T04:03:09.263Z,30.27
2017-09-30T04:05:35.569Z,30.87
2017-09-30T04:08:02.604Z,31.83
2017-09-30T04:10:28.894Z,30.63
2017-09-30T04:12:55.159Z,30.00
2017-09-30T04:15:21.450Z,30.43
2017-09-30T04:17:47.735Z,30.83
2017-09-30T04:20:14.777Z,32.67
2017-09-30T04:22:41.054Z,30.10
2017-09-30T04:25:07.338Z,31.60
2017-09-30T04:27:35.253Z,31.40
2017-09-30T04:30:01.566Z,30.73
2017-09-30T04:32:27.850Z,30.93
2017-09-30T04:34:54.180Z,31.37
2017-09-30T04:37:20.501Z,31.40
2017-09-30T04:39:46.820Z,33.07
2017-09-30T04:42:14.097Z,32.07
2017-09-30T04:44:40.382Z,31.50
2017-09-30T04:47:06.683Z,31.97
2017-09-30T04:49:32.991Z,31.07
2017-09-30T04:51:59.284Z,30.93
2017-09-30T04:54:25.574Z,32.20
2017-09-30T04:56:52.607Z,31.90
2017-09-30T04:59:19.646Z,33.33
2017-09-30T05:01:46.691Z,33.73
2017-09-30T05:04:12.964Z,32.73
2017-09-30T05:06:39.242Z,32.43
2017-09-30T05:09:06.303Z,33.53
2017-09-30T05:11:32.690Z,33.70
2017-09-30T05:13:59.000Z,31.50
2017-09-30T05:16:25.269Z,30.20
2017-09-30T05:18:52.620Z,31.37
2017-09-30T05:21:19.240Z,30.00
2017-09-30T05:23:45.527Z,33.53
2017-09-30T05:26:11.847Z,31.77
2017-09-30T05:28:38.907Z,30.77
2017-09-30T05:31:05.925Z,32.33
2017-09-30T05:33:32.237Z,30.40
2017-09-30T05:35:58.544Z,31.10
2017-09-30T05:38:24.866Z,30.70
2017-09-30T05:40:51.153Z,31.07
2017-09-30T05:43:17.453Z,29.93
2017-09-30T05:45:43.761Z,34.30
2017-09-30T05:48:10.062Z,36.20
2017-09-30T05:50:36.377Z,35.60
2017-09-30T05:53:03.432Z,34.83
2017-09-30T05:55:29.748Z,34.67
2017-09-30T05:57:56.043Z,31.43
2017-09-30T06:00:22.350Z,31.10
2017-09-30T06:02:48.637Z,29.47
2017-09-30T06:05:15.213Z,31.60
2017-09-30T06:07:41.508Z,30.93
2017-09-30T06:10:08.563Z,31.00
2017-09-30T06:12:35.625Z,31.43
2017-09-30T06:15:01.959Z,30.10
2017-09-30T06:17:28.270Z,30.93
2017-09-30T06:19:55.338Z,29.83
2017-09-30T06:22:21.652Z,29.10
2017-09-30T06:24:48.691Z,29.60
2017-09-30T06:27:15.740Z,30.53
2017-09-30T06:29:42.791Z,30.43
2017-09-30T06:32:09.819Z,29.10
2017-09-30T06:34:36.193Z,29.10
2017-09-30T06:37:02.500Z,31.77
2017-09-30T06:39:28.820Z,29.63
2017-09-30T06:41:55.879Z,31.63
2017-09-30T06:44:22.212Z,30.40
2017-09-30T06:46:49.248Z,30.87
2017-09-30T06:49:16.303Z,31.63
2017-09-30T06:51:43.362Z,29.70
2017-09-30T06:54:09.696Z,29.10
2017-09-30T06:56:36.026Z,31.47
2017-09-30T06:59:02.397Z,31.50
2017-09-30T07:01:28.714Z,29.97
2017-09-30T07:03:55.000Z,30.83
2017-09-30T07:06:22.058Z,30.63
2017-09-30T07:08:48.712Z,30.93
2017-09-30T07:11:15.026Z,29.93
2017-09-30T07:13:41.345Z,31.10
2017-09-30T07:16:07.701Z,30.87
2017-09-30T07:18:34.035Z,29.53
2017-09-30T07:21:00.398Z,30.00
2017-09-30T07:23:26.692Z,31.07
2017-09-30T07:25:53.006Z,29.87
2017-09-30T07:28:19.324Z,32.33
2017-09-30T07:30:46.368Z,31.07
2017-09-30T07:33:13.415Z,30.90
2017-09-30T07:35:39.737Z,32.13
2017-09-30T07:38:06.794Z,31.20
2017-09-30T07:40:33.863Z,31.50
2017-09-30T07:43:00.181Z,29.77
2017-09-30T07:45:27.208Z,32.07
2017-09-30T07:47:54.269Z,31.57
2017-09-30T07:50:21.303Z,30.43
2017-09-30T07:52:48.342Z,30.73
2017-09-30T07:55:15.406Z,30.33
2017-09-30T07:57:41.734Z,31.40
2017-09-30T08:00:08.078Z,30.93
2017-09-30T08:02:34.389Z,31.13
2017-09-30T08:05:01.436Z,30.37
2017-09-30T08:07:28.483Z,29.27
2017-09-30T08:09:55.551Z,31.13
2017-09-30T08:12:21.845Z,31.63
2017-09-30T08:14:48.135Z,31.70
2017-09-30T08:17:14.473Z,29.50
2017-09-30T08:19:40.768Z,31.37
2017-09-30T08:22:07.788Z,30.67
2017-09-30T08:24:34.859Z,29.77
2017-09-30T08:27:01.907Z,30.43
2017-09-30T08:29:28.270Z,31.10
2017-09-30T08:31:54.575Z,31.33
2017-09-30T08:34:20.904Z,29.60
2017-09-30T08:36:47.221Z,30.80
2017-09-30T08:39:14.278Z,29.17
2017-09-30T08:41:41.338Z,32.17
2017-09-30T08:44:07.655Z,30.37
2017-09-30T08:46:33.962Z,30.83
2017-09-30T08:49:01.047Z,31.07
2017-09-30T08:51:27.361Z,29.30
2017-09-30T08:53:53.693Z,30.07
2017-09-30T08:56:20.047Z,29.03
2017-09-30T08:58:46.371Z,30.30
2017-09-30T09:01:12.678Z,27.30
2017-09-30T09:03:39.731Z,30.17
2017-09-30T09:06:06.039Z,31.37
2017-09-30T09:08:33.082Z,28.40
2017-09-30T09:11:00.149Z,30.67
2017-09-30T09:13:27.186Z,28.67
2017-09-30T09:15:54.257Z,29.70
2017-09-30T09:18:20.557Z,29.93
2017-09-30T09:20:48.345Z,29.70
2017-09-30T09:23:14.634Z,29.87
2017-09-30T09:25:42.430Z,29.30
2017-09-30T09:28:08.791Z,27.30
2017-09-30T09:30:35.126Z,29.07
2017-09-30T09:33:01.430Z,27.70
2017-09-30T09:35:27.710Z,39.00
2017-09-30T09:37:54.015Z,49.83
2017-09-30T09:40:20.312Z,34.50
2017-09-30T09:42:46.621Z,34.77
2017-09-30T09:45:14.411Z,30.20
2017-09-30T09:47:40.784Z,29.67
2017-09-30T09:50:07.165Z,28.67
2017-09-30T09:52:34.219Z,28.40
2017-09-30T09:55:00.562Z,29.83
2017-09-30T09:57:27.765Z,28.93
2017-09-30T09:59:55.545Z,28.87
2017-09-30T10:02:22.616Z,28.80
2017-09-30T10:04:48.936Z,26.70
2017-09-30T10:07:17.080Z,28.93
2017-09-30T10:09:44.822Z,26.87
2017-09-30T10:12:12.329Z,28.23
2017-09-30T10:14:40.106Z,28.37
2017-09-30T10:17:06.503Z,27.20
2017-09-30T10:19:32.831Z,26.67
2017-09-30T10:21:59.141Z,27.47
2017-09-30T10:24:25.449Z,30.53
2017-09-30T10:26:51.795Z,26.00
2017-09-30T10:29:18.127Z,27.43
2017-09-30T10:31:46.227Z,27.83
2017-09-30T10:34:13.306Z,28.60
2017-09-30T10:36:39.621Z,27.80
2017-09-30T10:39:06.691Z,27.30
2017-09-30T10:41:33.026Z,27.60
2017-09-30T10:44:00.374Z,28.73
2017-09-30T10:46:26.726Z,25.80
2017-09-30T10:48:53.039Z,29.23
2017-09-30T10:51:19.328Z,27.87
2017-09-30T10:53:45.639Z,27.50
2017-09-30T10:56:11.967Z,27.10
2017-09-30T10:58:39.109Z,27.07
2017-09-30T11:01:05.421Z,27.20
2017-09-30T11:03:32.458Z,25.50
2017-09-30T11:05:58.773Z,27.93
2017-09-30T11:08:25.816Z,26.07
2017-09-30T11:10:52.872Z,25.63
2017-09-30T11:13:19.916Z,31.43
2017-09-30T11:15:46.977Z,25.07
2017-09-30T11:18:13.270Z,34.33
2017-09-30T11:20:40.343Z,26.23
2017-09-30T11:23:06.772Z,23.50
2017-09-30T11:25:33.838Z,23.07
2017-09-30T11:28:00.148Z,27.07
2017-09-30T11:30:26.446Z,22.33
2017-09-30T11:32:52.773Z,22.50
2017-09-30T11:35:20.562Z,22.40
2017-09-30T11:37:47.608Z,21.90
2017-09-30T11:40:14.676Z,21.17
2017-09-30T11:42:41.038Z,21.50
2017-09-30T11:45:07.365Z,22.17
2017-09-30T11:47:33.681Z,22.57
2017-09-30T11:50:01.515Z,20.40
2017-09-30T11:52:27.816Z,21.10
2017-09-30T11:54:54.109Z,21.20
2017-09-30T11:57:20.423Z,21.20
2017-09-30T11:59:46.760Z,20.10
2017-09-30T12:02:13.225Z,21.50
2017-09-30T12:04:39.657Z,19.50
2017-09-30T12:07:06.148Z,19.37
2017-09-30T12:09:32.461Z,20.23
2017-09-30T12:11:59.522Z,19.00
2017-09-30T12:14:25.820Z,20.50
2017-09-30T12:16:52.154Z,20.17
2017-09-30T12:19:18.470Z,20.40
2017-09-30T12:21:44.756Z,19.67
2017-09-30T12:24:11.102Z,19.40
2017-09-30T12:26:37.423Z,18.87
2017-09-30T12:29:03.763Z,19.80
2017-09-30T12:31:30.063Z,19.10
2017-09-30T12:33:56.638Z,19.40
2017-09-30T12:36:22.953Z,18.00
2017-09-30T12:38:49.279Z,18.10
2017-09-30T12:41:15.592Z,19.77
2017-09-30T12:43:41.897Z,19.70
2017-09-30T12:46:08.950Z,19.10
2017-09-30T12:48:36.042Z,18.70
2017-09-30T12:51:02.383Z,17.83
2017-09-30T12:53:28.692Z,19.93
2017-09-30T12:55:55.328Z,26.57
2017-09-30T12:58:21.690Z,26.93
2017-09-30T13:00:48.029Z,19.40
2017-09-30T13:03:15.848Z,19.20
2017-09-30T13:05:42.185Z,21.07
2017-09-30T13:08:08.556Z,19.10
2017-09-30T13:10:34.885Z,19.80
2017-09-30T13:13:02.699Z,18.47
2017-09-30T13:15:29.001Z,18.53
2017-09-30T13:17:56.090Z,18.60
2017-09-30T13:20:22.407Z,19.37
2017-09-30T13:22:48.707Z,18.07
2017-09-30T13:25:15.797Z,19.97
2017-09-30T13:27:42.121Z,19.13
2017-09-30T13:30:08.453Z,19.83
2017-09-30T13:32:34.770Z,19.50
2017-09-30T13:35:01.107Z,20.57
2017-09-30T13:37:27.486Z,18.87
2017-09-30T13:39:53.793Z,19.20
2017-09-30T13:42:20.114Z,19.27
2017-09-30T13:44:46.433Z,20.10
2017-09-30T13:47:12.749Z,20.53
2017-09-30T13:49:39.083Z,19.10
2017-09-30T13:52:05.408Z,18.80
2017-09-30T13:54:32.425Z,17.63
2017-09-30T13:56:58.733Z,17.57
2017-09-30T13:59:25.030Z,19.10
2017-09-30T14:01:51.339Z,19.87
2017-09-30T14:04:18.412Z,23.07
2017-09-30T14:06:44.716Z,19.80
2017-09-30T14:09:11.740Z,18.33
2017-09-30T14:11:38.149Z,18.20
2017-09-30T14:14:04.475Z,19.13
2017-09-30T14:16:30.793Z,17.90
2017-09-30T14:18:57.086Z,18.80
2017-09-30T14:21:24.779Z,17.80
2017-09-30T14:23:51.091Z,16.90
2017-09-30T14:26:17.391Z,17.53
2017-09-30T14:28:44.454Z,17.77
2017-09-30T14:31:11.491Z,18.07
2017-09-30T14:33:38.538Z,18.00
2017-09-30T14:36:05.609Z,18.97
2017-09-30T14:38:31.944Z,18.10
2017-09-30T14:40:58.250Z,18.87
2017-09-30T14:43:24.566Z,17.73
2017-09-30T14:45:50.871Z,17.90
2017-09-30T14:48:17.170Z,18.47
2017-09-30T14:50:43.493Z,18.13
2017-09-30T14:53:09.791Z,18.33
2017-09-30T14:55:36.857Z,17.63
2017-09-30T14:58:03.160Z,18.57
2017-09-30T15:00:29.491Z,18.30
2017-09-30T15:02:56.560Z,18.53
2017-09-30T15:05:23.613Z,16.50
2017-09-30T15:07:50.644Z,17.93
2017-09-30T15:10:17.689Z,17.77
2017-09-30T15:12:44.743Z,15.80
2017-09-30T15:15:11.800Z,17.93
2017-09-30T15:17:38.828Z,17.70
2017-09-30T15:20:05.921Z,16.80
2017-09-30T15:22:32.216Z,19.17
2017-09-30T15:24:59.262Z,16.43
2017-09-30T15:27:26.315Z,19.07
2017-09-30T15:29:53.368Z,17.43
2017-09-30T15:32:20.418Z,16.77
2017-09-30T15:34:46.716Z,16.43
2017-09-30T15:37:13.008Z,16.63
2017-09-30T15:39:39.312Z,16.90
2017-09-30T15:42:05.607Z,16.43
2017-09-30T15:44:33.390Z,16.30
2017-09-30T15:47:00.430Z,16.60
2017-09-30T15:49:27.485Z,14.70
2017-09-30T15:51:54.535Z,16.00
2017-09-30T15:54:21.590Z,15.97
2017-09-30T15:56:47.923Z,15.90
2017-09-30T15:59:14.216Z,16.83
2017-09-30T16:01:40.508Z,16.33
2017-09-30T16:04:06.814Z,15.17
2017-09-30T16:06:33.856Z,16.03
2017-09-30T16:09:00.204Z,15.67
2017-09-30T16:11:26.494Z,14.10
2017-09-30T16:13:53.569Z,15.70
2017-09-30T16:16:19.919Z,15.77
2017-09-30T16:18:46.232Z,13.50
2017-09-30T16:21:12.531Z,14.33
2017-09-30T16:23:38.847Z,14.07
2017-09-30T16:26:05.144Z,14.50
2017-09-30T16:28:31.449Z,14.43
2017-09-30T16:30:57.762Z,14.07
2017-09-30T16:33:24.084Z,14.23
2017-09-30T16:35:50.399Z,14.07
2017-09-30T16:38:18.165Z,15.10
2017-09-30T16:40:45.257Z,15.27
2017-09-30T16:43:11.564Z,13.93
2017-09-30T16:45:37.885Z,13.20
2017-09-30T16:48:04.942Z,13.87
2017-09-30T16:50:31.252Z,14.57
2017-09-30T16:52:58.294Z,14.00
2017-09-30T16:55:26.096Z,13.70
2017-09-30T16:57:52.389Z,14.00
2017-09-30T17:00:19.470Z,14.10
2017-09-30T17:02:45.776Z,14.80
2017-09-30T17:05:12.085Z,15.10
2017-09-30T17:07:38.361Z,13.20
2017-09-30T17:10:04.643Z,14.13
2017-09-30T17:12:30.938Z,15.10
2017-09-30T17:14:57.218Z,15.17
2017-09-30T17:17:24.981Z,13.97
2017-09-30T17:19:52.771Z,13.93
2017-09-30T17:22:19.090Z,14.50
2017-09-30T17:24:46.115Z,15.10
2017-09-30T17:27:13.168Z,15.30
2017-09-30T17:29:40.209Z,15.87
2017-09-30T17:32:06.521Z,16.17
2017-09-30T17:34:34.361Z,15.20
2017-09-30T17:37:00.686Z,16.03
2017-09-30T17:39:26.975Z,13.90
2017-09-30T17:41:53.320Z,15.03
2017-09-30T17:44:20.397Z,14.90
2017-09-30T17:46:46.690Z,16.10
2017-09-30T17:49:13.784Z,15.50
2017-09-30T17:51:40.102Z,14.97
2017-09-30T17:54:06.582Z,16.27
2017-09-30T17:56:33.377Z,15.77
2017-09-30T17:58:59.658Z,15.57
2017-09-30T18:01:26.755Z,15.23
2017-09-30T18:03:53.049Z,14.70
2017-09-30T18:06:20.079Z,16.03
2017-09-30T18:08:46.488Z,15.07
2017-09-30T18:11:12.770Z,14.50
2017-09-30T18:13:39.809Z,15.10
2017-09-30T18:16:06.837Z,14.77
2017-09-30T18:18:33.142Z,15.63
2017-09-30T18:20:59.446Z,15.50
2017-09-30T18:23:25.733Z,15.73
2017-09-30T18:25:52.792Z,14.53
2017-09-30T18:28:19.187Z,15.07
2017-09-30T18:30:45.499Z,15.20
2017-09-30T18:33:11.770Z,15.33
2017-09-30T18:35:38.054Z,13.77
2017-09-30T18:38:04.353Z,14.40
2017-09-30T18:40:30.821Z,14.70
2017-09-30T18:42:57.824Z,14.87
2017-09-30T18:45:24.196Z,14.10
2017-09-30T18:47:50.509Z,14.83
2017-09-30T18:50:16.812Z,14.73
2017-09-30T18:52:43.839Z,12.73
2017-09-30T18:55:11.611Z,14.60
2017-09-30T18:57:38.644Z,15.00
2017-09-30T19:00:04.954Z,13.50
2017-09-30T19:02:31.314Z,13.63
2017-09-30T19:04:59.079Z,14.40
2017-09-30T19:07:26.860Z,13.50
2017-09-30T19:09:53.169Z,13.50
2017-09-30T19:12:19.452Z,13.40
2017-09-30T19:14:45.728Z,14.37
2017-09-30T19:17:13.506Z,14.23
2017-09-30T19:19:40.530Z,13.77
2017-09-30T19:22:06.824Z,13.67
2017-09-30T19:24:33.093Z,13.83
2017-09-30T19:27:00.162Z,12.80
2017-09-30T19:29:27.205Z,13.50
2017-09-30T19:31:54.242Z,14.13
2017-09-30T19:34:21.298Z,13.97
2017-09-30T19:36:48.318Z,13.93
2017-09-30T19:39:14.608Z,14.87
2017-09-30T19:41:40.904Z,14.03
2017-09-30T19:44:07.962Z,14.17
2017-09-30T19:46:34.990Z,13.63
2017-09-30T19:49:02.053Z,14.20
2017-09-30T19:51:29.064Z,13.53
2017-09-30T19:53:55.396Z,14.03
2017-09-30T19:56:22.454Z,13.90
2017-09-30T19:58:50.224Z,14.83
2017-09-30T20:01:17.972Z,14.20
2017-09-30T20:03:45.039Z,13.43
2017-09-30T20:06:12.077Z,13.90
2017-09-30T20:08:39.842Z,14.33
2017-09-30T20:11:07.664Z,14.03
2017-09-30T20:13:33.965Z,14.43
2017-09-30T20:16:00.269Z,15.00
2017-09-30T20:18:26.570Z,13.90
2017-09-30T20:20:52.858Z,14.70
2017-09-30T20:23:19.155Z,14.47
2017-09-30T20:25:46.923Z,13.70
2017-09-30T20:28:13.228Z,14.47
2017-09-30T20:30:39.524Z,14.00
2017-09-30T20:33:05.812Z,14.57
2017-09-30T20:35:33.579Z,15.30
2017-09-30T20:38:00.608Z,14.73
2017-09-30T20:40:28.405Z,14.20
2017-09-30T20:42:54.718Z,14.73
2017-09-30T20:45:22.482Z,15.87
2017-09-30T20:47:49.505Z,14.33
2017-09-30T20:50:15.882Z,14.57
2017-09-30T20:52:42.910Z,14.87
2017-09-30T20:55:09.938Z,15.50
2017-09-30T20:57:37.730Z,15.70
2017-09-30T21:00:04.766Z,14.83
2017-09-30T21:02:31.847Z,14.40
2017-09-30T21:04:58.147Z,15.50
2017-09-30T21:07:25.197Z,14.60
2017-09-30T21:09:52.226Z,14.53
2017-09-30T21:12:19.256Z,15.67
2017-09-30T21:14:45.540Z,15.47
2017-09-30T21:17:11.853Z,15.20
2017-09-30T21:19:38.886Z,14.97
2017-09-30T21:22:05.957Z,15.27
2017-09-30T21:24:32.981Z,16.10
2017-09-30T21:27:00.041Z,15.13
2017-09-30T21:29:27.092Z,16.07
2017-09-30T21:31:54.138Z,15.87
2017-09-30T21:34:21.174Z,16.47
2017-09-30T21:36:48.243Z,14.93
2017-09-30T21:39:15.266Z,15.97
2017-09-30T21:41:41.552Z,16.63
2017-09-30T21:44:07.854Z,14.57
2017-09-30T21:46:34.175Z,15.97
2017-09-30T21:49:01.208Z,16.60
2017-09-30T21:51:28.240Z,17.23
2017-09-30T21:53:55.278Z,15.90
2017-09-30T21:56:21.550Z,16.93
2017-09-30T21:58:48.558Z,16.73
2017-09-30T22:01:14.861Z,16.27
2017-09-30T22:03:41.179Z,17.57
2017-09-30T22:06:07.486Z,16.90
2017-09-30T22:08:33.846Z,15.27
2017-09-30T22:11:00.156Z,16.70
2017-09-30T22:13:26.465Z,18.27
2017-09-30T22:15:53.480Z,17.57
2017-09-30T22:18:19.783Z,16.17
2017-09-30T22:20:46.104Z,19.53
2017-09-30T22:23:12.426Z,18.17
2017-09-30T22:25:38.747Z,17.60
2017-09-30T22:28:05.039Z,18.63
2017-09-30T22:30:31.367Z,17.67
2017-09-30T22:32:58.400Z,18.60
2017-09-30T22:35:24.684Z,16.03
2017-09-30T22:37:51.713Z,15.20
2017-09-30T22:40:18.755Z,16.53
2017-09-30T22:42:45.798Z,15.23
2017-09-30T22:45:12.867Z,17.80
2017-09-30T22:47:39.177Z,16.10
2017-09-30T22:50:06.534Z,16.17
2017-09-30T22:52:33.570Z,17.70
2017-09-30T22:55:00.587Z,18.07
2017-09-30T22:57:26.879Z,18.23
2017-09-30T22:59:53.183Z,17.70
2017-09-30T23:02:20.226Z,17.97
2017-09-30T23:04:47.254Z,20.03
2017-09-30T23:07:13.534Z,19.10
2017-09-30T23:09:39.814Z,20.93
2017-09-30T23:12:06.866Z,21.10
2017-09-30T23:14:33.162Z,21.67
2017-09-30T23:16:59.450Z,19.77
2017-09-30T23:19:26.478Z,21.27
2017-09-30T23:21:54.257Z,21.30
2017-09-30T23:24:20.602Z,21.60
2017-09-30T23:26:46.905Z,21.27
2017-09-30T23:29:14.671Z,19.80
2017-09-30T23:31:42.441Z,20.30
2017-09-30T23:34:09.486Z,21.77
2017-09-30T23:36:36.810Z,22.30
2017-09-30T23:39:03.159Z,20.40
2017-09-30T23:41:29.442Z,21.63
2017-09-30T23:43:55.724Z,21.13
2017-09-30T23:46:22.760Z,21.80
2017-09-30T23:48:50.517Z,22.40
2017-09-30T23:51:17.594Z,20.90
2017-09-30T23:53:44.610Z,22.40
2017-09-30T23:56:10.887Z,21.83
2017-09-30T23:58:37.171Z,22.60
